Time;durP1;ratioP1;P1;durP2;ratioP2;P2;SDS_P1;SDS_P2;PMS_P1;PMS_P2;Temp;Humidity;BMP_temperature;BMP_pressure;BME280_temperature;BME280_humidity;BME280_pressure;Samples;Min_cycle;Max_cycle;Signal;HPM_P1;HPM_P2
2022/05/26 00:01:16;;;;;;;;;;;14.50;99.90;;;;;;5111310;28;19935;-70
2022/05/26 00:03:43;;;;;;;;;;;14.50;99.90;;;;;;5091710;28;19904;-70
2022/05/26 00:06:09;;;;;;;;;;;14.50;99.90;;;;;;5111409;28;19908;-71
2022/05/26 00:08:36;;;;;;;;;;;14.60;99.90;;;;;;5113152;28;19926;-72
2022/05/26 00:11:03;;;;;;;;;;;14.70;99.90;;;;;;5114377;28;19977;-70
2022/05/26 00:13:32;;;;;;;;;;;14.80;99.90;;;;;;5109590;28;19913;-71
2022/05/26 00:15:57;;;;;;;;;;;14.60;99.90;;;;;;5107074;28;19920;-70
2022/05/26 00:18:23;;;;;;;;;;;14.60;99.90;;;;;;5108589;28;19988;-69
2022/05/26 00:20:48;;;;;;;;;;;14.50;99.90;;;;;;5094324;28;19916;-71
2022/05/26 00:23:14;;;;;;;;;;;14.60;99.90;;;;;;5113313;28;19913;-70
2022/05/26 00:25:40;;;;;;;;;;;14.50;99.90;;;;;;5109045;28;19959;-71
2022/05/26 00:28:06;;;;;;;;;;;14.60;99.90;;;;;;5108689;28;19904;-70
2022/05/26 00:30:32;;;;;;;;;;;14.50;99.90;;;;;;5110159;28;20022;-71
2022/05/26 00:32:59;;;;;;;;;;;14.50;99.90;;;;;;5110427;27;19904;-71
2022/05/26 00:35:25;;;;;;;;;;;14.50;99.90;;;;;;5110637;28;19908;-70
2022/05/26 00:37:51;;;;;;;;;;;14.50;99.90;;;;;;5113010;28;20070;-70
2022/05/26 00:40:17;;;;;;;;;;;14.40;99.90;;;;;;5091777;28;19947;-69
2022/05/26 00:42:43;;;;;;;;;;;14.50;99.90;;;;;;5110465;28;19912;-69
2022/05/26 00:45:08;;;;;;;;;;;14.50;99.90;;;;;;5109692;28;19946;-70
2022/05/26 00:47:39;;;;;;;;;;;14.60;99.90;;;;;;5095419;28;19939;-69
2022/05/26 00:50:14;;;;;;;;;;;14.60;99.90;;;;;;5105223;28;19977;-71
2022/05/26 00:52:49;;;;;;;;;;;14.50;99.90;;;;;;5109088;28;19967;-70
2022/05/26 00:55:18;;;;;;;;;;;14.50;99.90;;;;;;5117247;28;19900;-70
2022/05/26 00:57:46;;;;;;;;;;;14.30;99.90;;;;;;5113099;28;19908;-70
2022/05/26 01:00:17;;;;;;;;;;;14.40;99.90;;;;;;5116299;28;19900;-70
2022/05/26 01:02:52;;;;;;;;;;;14.30;99.90;;;;;;5109653;28;19984;-70
2022/05/26 01:05:20;;;;;;;;;;;14.20;99.90;;;;;;5116560;28;19927;-70
2022/05/26 01:07:45;;;;;;;;;;;14.30;99.90;;;;;;5113705;27;19962;-71
2022/05/26 01:10:12;;;;;;;;;;;14.10;99.90;;;;;;5117411;28;19905;-71
2022/05/26 01:12:37;;;;;;;;;;;14.30;99.90;;;;;;5115941;28;19963;-70
2022/05/26 01:15:05;;;;;;;;;;;14.10;99.90;;;;;;5113170;28;19972;-70
2022/05/26 01:17:40;;;;;;;;;;;13.90;99.90;;;;;;5115362;28;19927;-70
2022/05/26 01:20:24;;;;;;;;;;;13.90;99.90;;;;;;5116433;28;19915;-70
2022/05/26 01:22:59;;;;;;;;;;;13.80;99.90;;;;;;5098003;28;19979;-70
2022/05/26 01:25:43;;;;;;;;;;;13.80;99.90;;;;;;5116623;27;19904;-70
2022/05/26 01:28:08;;;;;;;;;;;13.90;99.90;;;;;;5106966;28;19912;-70
2022/05/26 01:30:53;;;;;;;;;;;13.80;99.90;;;;;;5114527;28;20424;-71
2022/05/26 01:33:37;;;;;;;;;;;13.90;99.90;;;;;;5110642;28;19912;-71
2022/05/26 01:36:32;;;;;;;;;;;13.80;99.90;;;;;;5112861;28;19930;-70
2022/05/26 01:39:23;;;;;;;;;;;13.90;99.90;;;;;;5071586;28;19904;-69
2022/05/26 01:41:57;;;;;;;;;;;13.90;99.90;;;;;;5113317;28;19922;-70
2022/05/26 01:44:22;;;;;;;;;;;13.90;99.90;;;;;;5116825;28;19911;-70
2022/05/26 01:46:50;;;;;;;;;;;14.00;99.90;;;;;;5109849;28;19904;-69
2022/05/26 01:49:30;;;;;;;;;;;13.90;99.90;;;;;;5087872;28;19927;-70
2022/05/26 01:52:02;;;;;;;;;;;13.90;99.90;;;;;;5111650;28;19905;-70
2022/05/26 01:54:46;;;;;;;;;;;13.90;99.90;;;;;;5111479;28;20191;-70
2022/05/26 01:57:24;;;;;;;;;;;13.90;99.90;;;;;;5114437;28;19944;-70
2022/05/26 01:59:52;;;;;;;;;;;13.80;99.90;;;;;;5113379;28;19980;-70
2022/05/26 02:02:33;;;;;;;;;;;13.90;99.90;;;;;;5113773;28;20833;-70
2022/05/26 02:05:01;;;;;;;;;;;13.80;99.90;;;;;;5112971;28;19931;-70
2022/05/26 02:07:45;;;;;;;;;;;13.80;99.90;;;;;;5098236;28;19954;-71
2022/05/26 02:10:26;;;;;;;;;;;13.70;99.90;;;;;;5113483;28;19904;-70
2022/05/26 02:12:57;;;;;;;;;;;13.80;99.90;;;;;;5093117;28;19911;-71
2022/05/26 02:15:26;;;;;;;;;;;13.80;99.90;;;;;;5116716;28;19913;-70
2022/05/26 02:17:55;;;;;;;;;;;13.70;99.90;;;;;;5112084;28;19916;-70
2022/05/26 02:20:29;;;;;;;;;;;13.60;99.90;;;;;;5112011;27;19926;-70
2022/05/26 02:23:15;;;;;;;;;;;13.70;99.90;;;;;;5091875;28;19910;-70
2022/05/26 02:25:40;;;;;;;;;;;13.70;99.90;;;;;;5111963;28;19908;-74
2022/05/26 02:28:06;;;;;;;;;;;13.70;99.90;;;;;;5094155;28;19904;-70
2022/05/26 02:30:36;;;;;;;;;;;13.60;99.90;;;;;;5113662;28;19900;-70
2022/05/26 02:33:05;;;;;;;;;;;13.70;99.90;;;;;;5081580;28;19905;-71
2022/05/26 02:35:32;;;;;;;;;;;13.80;99.90;;;;;;5112449;28;19964;-71
2022/05/26 02:38:02;;;;;;;;;;;13.80;99.90;;;;;;5115388;28;19916;-70
2022/05/26 02:40:28;;;;;;;;;;;13.90;99.90;;;;;;5113275;28;19915;-70
2022/05/26 02:43:10;;;;;;;;;;;13.80;99.90;;;;;;5113187;28;19947;-70
2022/05/26 02:45:39;;;;;;;;;;;13.80;99.90;;;;;;5112341;28;19924;-70
2022/05/26 02:48:11;;;;;;;;;;;13.70;99.90;;;;;;5093194;28;20011;-71
2022/05/26 02:50:36;;;;;;;;;;;13.70;99.90;;;;;;5109621;28;19922;-69
2022/05/26 02:53:19;;;;;;;;;;;13.70;99.90;;;;;;5110769;28;19905;-70
2022/05/26 02:55:47;;;;;;;;;;;13.80;99.90;;;;;;5111645;28;19915;-71
2022/05/26 02:58:16;;;;;;;;;;;13.80;99.90;;;;;;5098116;28;19912;-70
2022/05/26 03:00:46;;;;;;;;;;;13.80;99.90;;;;;;5113330;28;19924;-70
2022/05/26 03:03:33;;;;;;;;;;;13.80;99.90;;;;;;5114314;28;19900;-69
2022/05/26 03:06:17;;;;;;;;;;;13.80;99.90;;;;;;5107171;28;19901;-70
2022/05/26 03:08:43;;;;;;;;;;;13.80;99.90;;;;;;5109902;28;19972;-70
2022/05/26 03:11:16;;;;;;;;;;;13.80;99.90;;;;;;5115516;27;19939;-70
2022/05/26 03:13:41;;;;;;;;;;;13.70;99.90;;;;;;5111675;28;19932;-70
2022/05/26 03:16:07;;;;;;;;;;;13.70;99.90;;;;;;5115247;28;19912;-71
2022/05/26 03:18:33;;;;;;;;;;;13.70;99.90;;;;;;5113237;28;19912;-71
2022/05/26 03:21:00;;;;;;;;;;;13.80;99.90;;;;;;5110591;28;19904;-70
2022/05/26 03:23:26;;;;;;;;;;;13.80;99.90;;;;;;5099363;28;19935;-70
2022/05/26 03:25:53;;;;;;;;;;;13.80;99.90;;;;;;5113907;28;19900;-70
2022/05/26 03:28:19;;;;;;;;;;;13.70;99.90;;;;;;5113806;28;19915;-70
2022/05/26 03:30:44;;;;;;;;;;;13.80;99.90;;;;;;5115169;28;19905;-71
2022/05/26 03:33:10;;;;;;;;;;;13.80;99.90;;;;;;5113474;28;19915;-70
2022/05/26 03:41:04;;;;;;;;;;;13.80;99.90;;;;;;5112022;28;19907;-71
2022/05/26 03:43:36;;;;;;;;;;;13.80;99.90;;;;;;5096874;28;19956;-71
2022/05/26 03:46:02;;;;;;;;;;;13.80;99.90;;;;;;5112203;28;19912;-69
2022/05/26 03:48:28;;;;;;;;;;;13.90;99.90;;;;;;5111794;28;19925;-70
2022/05/26 03:50:54;;;;;;;;;;;13.90;99.90;;;;;;5112578;28;19916;-71
2022/05/26 03:53:19;;;;;;;;;;;13.90;99.90;;;;;;5110070;28;19904;-71
2022/05/26 03:55:45;;;;;;;;;;;13.80;99.90;;;;;;5113594;28;19989;-70
2022/05/26 03:58:10;;;;;;;;;;;13.90;99.90;;;;;;5114254;28;20007;-71
2022/05/26 04:00:36;;;;;;;;;;;13.90;99.90;;;;;;5113252;28;19904;-71
2022/05/26 04:03:02;;;;;;;;;;;13.90;99.90;;;;;;5089134;28;19904;-71
2022/05/26 04:05:28;;;;;;;;;;;14.00;99.90;;;;;;5110758;28;19924;-70
2022/05/26 04:07:54;;;;;;;;;;;14.00;99.90;;;;;;5112392;28;19959;-71
2022/05/26 04:10:19;;;;;;;;;;;14.10;99.90;;;;;;5113724;28;19922;-70
2022/05/26 04:12:46;;;;;;;;;;;14.20;99.90;;;;;;5093897;28;19924;-70
2022/05/26 04:15:12;;;;;;;;;;;14.10;99.90;;;;;;5106649;28;19931;-70
2022/05/26 04:17:38;;;;;;;;;;;14.20;99.90;;;;;;5112925;28;19920;-71
2022/05/26 04:20:05;;;;;;;;;;;14.20;99.90;;;;;;5109708;27;19957;-70
2022/05/26 04:22:30;;;;;;;;;;;14.20;99.90;;;;;;5108687;28;19904;-71
2022/05/26 04:24:57;;;;;;;;;;;14.30;99.90;;;;;;5107681;28;19997;-71
2022/05/26 04:27:24;;;;;;;;;;;14.50;99.90;;;;;;5111951;28;19911;-71
2022/05/26 04:29:49;;;;;;;;;;;14.30;99.90;;;;;;5095167;28;19920;-70
2022/05/26 04:32:15;;;;;;;;;;;14.30;99.90;;;;;;5113046;28;19915;-70
2022/05/26 04:34:42;;;;;;;;;;;14.30;99.90;;;;;;5111452;28;19919;-70
2022/05/26 04:37:08;;;;;;;;;;;14.40;99.90;;;;;;5113375;27;19983;-70
2022/05/26 04:39:33;;;;;;;;;;;14.40;99.90;;;;;;5091275;28;20110;-70
2022/05/26 04:42:03;;;;;;;;;;;14.40;99.90;;;;;;5113408;28;19904;-70
2022/05/26 04:44:47;;;;;;;;;;;14.40;99.90;;;;;;5108391;28;19920;-70
2022/05/26 04:47:14;;;;;;;;;;;14.30;99.90;;;;;;5111618;28;19916;-70
2022/05/26 04:49:40;;;;;;;;;;;14.30;99.90;;;;;;5109753;28;19985;-71
2022/05/26 04:52:06;;;;;;;;;;;14.30;99.90;;;;;;5095148;28;19919;-70
2022/05/26 04:54:32;;;;;;;;;;;14.30;99.90;;;;;;5111421;28;19953;-70
2022/05/26 04:57:00;;;;;;;;;;;14.40;99.90;;;;;;5112904;28;19912;-70
2022/05/26 04:59:26;;;;;;;;;;;14.40;99.90;;;;;;5111927;28;19914;-70
2022/05/26 05:01:52;;;;;;;;;;;14.50;99.90;;;;;;5111311;28;19900;-71
2022/05/26 05:04:18;;;;;;;;;;;14.50;99.90;;;;;;5092987;28;19964;-70
2022/05/26 05:06:43;;;;;;;;;;;14.40;99.90;;;;;;5109211;28;19935;-70
2022/05/26 05:09:10;;;;;;;;;;;14.50;99.90;;;;;;5113141;27;19935;-71
2022/05/26 05:11:35;;;;;;;;;;;14.50;99.90;;;;;;5109312;28;19911;-73
2022/05/26 05:14:04;;;;;;;;;;;14.50;99.90;;;;;;5112263;28;19916;-70
2022/05/26 05:16:34;;;;;;;;;;;14.40;99.90;;;;;;5092851;28;19912;-71
2022/05/26 05:19:00;;;;;;;;;;;14.50;99.90;;;;;;5112023;28;19928;-70
2022/05/26 05:21:30;;;;;;;;;;;14.40;99.90;;;;;;5113254;28;19926;-70
2022/05/26 05:24:00;;;;;;;;;;;14.40;99.90;;;;;;5109623;28;19942;-71
2022/05/26 05:26:28;;;;;;;;;;;14.40;99.90;;;;;;5092991;27;19937;-70
2022/05/26 05:28:58;;;;;;;;;;;14.40;99.90;;;;;;5113604;28;19907;-70
2022/05/26 05:31:29;;;;;;;;;;;14.40;99.90;;;;;;5111495;28;19968;-70
2022/05/26 05:33:58;;;;;;;;;;;14.40;99.90;;;;;;5093340;28;19912;-70
2022/05/26 05:36:28;;;;;;;;;;;14.50;99.90;;;;;;5108989;28;19927;-71
2022/05/26 05:38:55;;;;;;;;;;;14.50;99.90;;;;;;5107244;28;19916;-70
2022/05/26 05:41:21;;;;;;;;;;;14.60;99.90;;;;;;5109955;28;19963;-71
2022/05/26 05:43:47;;;;;;;;;;;14.70;99.90;;;;;;5113301;27;19904;-71
2022/05/26 05:46:14;;;;;;;;;;;14.80;99.90;;;;;;5110282;28;20233;-70
2022/05/26 05:48:43;;;;;;;;;;;14.70;99.90;;;;;;5098495;28;19907;-71
2022/05/26 05:51:09;;;;;;;;;;;14.70;99.90;;;;;;5107726;28;19905;-70
2022/05/26 05:53:35;;;;;;;;;;;14.80;99.90;;;;;;5119313;28;19907;-71
2022/05/26 05:56:00;;;;;;;;;;;14.90;99.90;;;;;;5101862;28;19975;-70
2022/05/26 05:58:26;;;;;;;;;;;14.90;99.90;;;;;;5115131;28;19923;-71
2022/05/26 06:00:51;;;;;;;;;;;15.00;99.90;;;;;;5098724;28;19904;-70
2022/05/26 06:03:17;;;;;;;;;;;15.00;99.90;;;;;;5119336;28;19904;-71
2022/05/26 06:05:43;;;;;;;;;;;14.90;99.90;;;;;;5120083;28;19904;-71
2022/05/26 06:08:08;;;;;;;;;;;14.90;99.90;;;;;;5130380;28;19904;-71
2022/05/26 06:10:34;;;;;;;;;;;15.00;99.90;;;;;;5115257;28;19979;-72
2022/05/26 06:13:00;;;;;;;;;;;15.00;99.90;;;;;;5116979;28;19916;-71
2022/05/26 06:15:25;;;;;;;;;;;15.00;99.90;;;;;;5116895;28;19975;-71
2022/05/26 06:17:51;;;;;;;;;;;15.00;99.90;;;;;;5109245;27;19931;-72
2022/05/26 06:20:17;;;;;;;;;;;14.90;99.90;;;;;;5132945;28;19900;-72
2022/05/26 06:22:43;;;;;;;;;;;15.00;99.90;;;;;;5116908;28;19920;-71
2022/05/26 06:25:09;;;;;;;;;;;15.00;99.90;;;;;;5118960;28;19900;-71
2022/05/26 06:30:20;;;;;;;;;;;15.00;99.90;;;;;;5104695;28;19977;-71
2022/05/26 06:38:20;;;;;;;;;;;14.90;99.90;;;;;;5109795;28;19922;-72
2022/05/26 06:40:46;;;;;;;;;;;14.90;99.90;;;;;;5116887;28;19920;-71
2022/05/26 06:43:14;;;;;;;;;;;14.80;99.90;;;;;;5115120;28;19915;-72
2022/05/26 06:45:44;;;;;;;;;;;14.80;99.90;;;;;;5115025;28;19916;-72
2022/05/26 06:48:10;;;;;;;;;;;14.80;99.90;;;;;;5108305;28;19904;-71
2022/05/26 06:50:35;;;;;;;;;;;14.80;99.90;;;;;;5095467;28;20003;-71
2022/05/26 06:53:01;;;;;;;;;;;14.90;99.90;;;;;;5095039;28;19913;-72
2022/05/26 06:55:27;;;;;;;;;;;14.90;99.90;;;;;;5112001;28;19914;-71
2022/05/26 06:57:53;;;;;;;;;;;15.10;99.90;;;;;;5113566;28;19954;-71
2022/05/26 07:00:19;;;;;;;;;;;15.10;99.90;;;;;;5112979;28;19904;-71
2022/05/26 07:02:45;;;;;;;;;;;15.10;99.90;;;;;;5116512;28;19912;-71
2022/05/26 07:05:11;;;;;;;;;;;15.20;99.90;;;;;;5113141;28;19916;-72
2022/05/26 07:07:38;;;;;;;;;;;15.30;99.90;;;;;;5108373;28;19921;-71
2022/05/26 07:10:04;;;;;;;;;;;15.50;99.90;;;;;;5110156;28;19979;-72
2022/05/26 07:12:30;;;;;;;;;;;15.60;99.90;;;;;;5112621;28;19990;-71
2022/05/26 07:14:55;;;;;;;;;;;15.60;99.90;;;;;;5110525;28;19975;-71
2022/05/26 07:17:21;;;;;;;;;;;15.60;99.90;;;;;;5093093;28;19912;-71
2022/05/26 07:19:47;;;;;;;;;;;15.70;99.90;;;;;;5109235;28;19908;-71
2022/05/26 07:22:13;;;;;;;;;;;15.70;99.90;;;;;;5116164;28;19900;-70
2022/05/26 07:24:40;;;;;;;;;;;15.60;99.90;;;;;;5114305;28;19904;-71
2022/05/26 07:27:06;;;;;;;;;;;15.60;99.90;;;;;;5115592;27;19912;-72
2022/05/26 07:29:32;;;;;;;;;;;15.70;99.90;;;;;;5117328;28;19900;-71
2022/05/26 07:31:58;;;;;;;;;;;15.50;99.90;;;;;;5083082;28;19935;-71
2022/05/26 07:34:27;;;;;;;;;;;15.60;99.90;;;;;;5113117;28;19923;-71
2022/05/26 07:42:23;;;;;;;;;;;15.70;99.90;;;;;;5117714;28;19912;-71
2022/05/26 07:44:50;;;;;;;;;;;15.80;99.90;;;;;;5092668;28;19931;-71
2022/05/26 07:47:16;;;;;;;;;;;15.90;99.90;;;;;;5075102;28;19956;-69
2022/05/26 07:49:47;;;;;;;;;;;15.90;99.90;;;;;;5082519;28;19920;-70
2022/05/26 07:52:13;;;;;;;;;;;16.00;99.90;;;;;;5077817;28;19964;-70
2022/05/26 07:54:38;;;;;;;;;;;16.00;99.90;;;;;;5086942;28;19941;-69
2022/05/26 07:57:04;;;;;;;;;;;16.00;99.90;;;;;;5087981;28;20197;-70
2022/05/26 07:59:30;;;;;;;;;;;15.90;99.90;;;;;;5091635;28;19919;-69
2022/05/26 08:01:56;;;;;;;;;;;15.90;99.90;;;;;;5077101;28;20195;-69
2022/05/26 08:04:22;;;;;;;;;;;16.00;99.90;;;;;;5094063;28;20262;-69
2022/05/26 08:06:48;;;;;;;;;;;16.10;99.90;;;;;;5089895;28;19915;-69
2022/05/26 08:09:15;;;;;;;;;;;16.20;99.90;;;;;;5069952;28;19976;-69
2022/05/26 08:11:41;;;;;;;;;;;16.10;99.90;;;;;;5098226;28;19908;-71
2022/05/26 08:14:06;;;;;;;;;;;16.00;99.90;;;;;;5098152;28;19945;-69
2022/05/26 08:16:32;;;;;;;;;;;16.00;99.90;;;;;;5105404;28;19916;-70
2022/05/26 08:18:58;;;;;;;;;;;16.10;99.90;;;;;;5066501;28;19912;-70
2022/05/26 08:21:23;;;;;;;;;;;16.20;99.90;;;;;;5086703;28;19912;-71
2022/05/26 08:23:49;;;;;;;;;;;16.40;99.90;;;;;;5085490;28;19908;-71
2022/05/26 08:26:15;;;;;;;;;;;16.30;99.90;;;;;;5105525;28;19926;-71
2022/05/26 08:28:42;;;;;;;;;;;16.20;99.90;;;;;;5108964;28;19927;-70
2022/05/26 08:31:09;;;;;;;;;;;16.10;99.90;;;;;;5104626;28;19933;-71
2022/05/26 08:33:35;;;;;;;;;;;16.20;99.90;;;;;;5086955;28;19974;-72
2022/05/26 08:36:03;;;;;;;;;;;16.30;99.90;;;;;;5102492;28;19920;-74
2022/05/26 08:38:28;;;;;;;;;;;16.30;99.90;;;;;;5102546;28;19927;-71
2022/05/26 08:40:54;;;;;;;;;;;16.30;99.90;;;;;;5104872;28;19994;-72
2022/05/26 08:43:21;;;;;;;;;;;16.40;99.90;;;;;;5101924;28;19924;-72
2022/05/26 08:45:48;;;;;;;;;;;16.50;99.90;;;;;;5105103;28;19923;-72
2022/05/26 08:48:33;;;;;;;;;;;16.50;99.90;;;;;;5100724;28;19999;-71
2022/05/26 08:50:58;;;;;;;;;;;16.40;99.90;;;;;;5102947;28;19920;-71
2022/05/26 08:53:32;;;;;;;;;;;16.50;99.90;;;;;;5082126;28;19912;-71
2022/05/26 08:56:00;;;;;;;;;;;16.50;99.90;;;;;;5085522;28;19923;-70
2022/05/26 08:58:27;;;;;;;;;;;16.70;99.90;;;;;;5101577;28;19925;-72
2022/05/26 09:00:53;;;;;;;;;;;16.80;99.90;;;;;;5105027;28;19924;-71
2022/05/26 09:03:19;;;;;;;;;;;16.90;99.90;;;;;;5108992;28;19916;-70
2022/05/26 09:05:45;;;;;;;;;;;17.30;99.90;;;;;;5109993;28;19916;-71
2022/05/26 09:13:43;;;;;;;;;;;18.00;99.90;;;;;;5111028;28;19915;-71
2022/05/26 09:16:10;;;;;;;;;;;17.70;99.90;;;;;;5103273;28;19936;-73
2022/05/26 09:18:36;;;;;;;;;;;17.50;99.90;;;;;;5108034;28;19963;-71
2022/05/26 09:21:12;;;;;;;;;;;17.50;99.90;;;;;;5111230;28;19913;-69
2022/05/26 09:23:42;;;;;;;;;;;17.50;99.90;;;;;;5112042;28;19979;-70
2022/05/26 09:26:09;;;;;;;;;;;17.30;99.90;;;;;;5105395;27;19904;-70
2022/05/26 09:28:44;;;;;;;;;;;17.30;99.90;;;;;;5111021;28;19942;-70
2022/05/26 09:31:22;;;;;;;;;;;17.20;99.90;;;;;;5113769;28;20044;-70
2022/05/26 09:34:03;;;;;;;;;;;17.30;99.90;;;;;;5116301;28;19924;-70
2022/05/26 09:36:42;;;;;;;;;;;17.40;99.90;;;;;;5094213;28;19928;-71
2022/05/26 09:39:08;;;;;;;;;;;17.40;99.90;;;;;;5112876;28;19972;-71
2022/05/26 09:41:42;;;;;;;;;;;17.40;99.90;;;;;;5113826;28;20025;-71
2022/05/26 09:44:20;;;;;;;;;;;17.20;99.90;;;;;;5115790;28;19904;-74
2022/05/26 09:46:49;;;;;;;;;;;17.10;99.90;;;;;;5107113;28;19927;-70
2022/05/26 09:49:15;;;;;;;;;;;17.10;99.90;;;;;;5097783;28;20026;-70
2022/05/26 09:51:45;;;;;;;;;;;17.10;99.90;;;;;;5109518;28;20596;-73
2022/05/26 09:54:30;;;;;;;;;;;17.20;99.90;;;;;;5110254;28;19944;-70
2022/05/26 09:56:56;;;;;;;;;;;17.20;99.90;;;;;;5092853;28;20146;-71
2022/05/26 09:59:34;;;;;;;;;;;17.40;99.90;;;;;;5112626;28;19916;-71
2022/05/26 10:02:02;;;;;;;;;;;17.70;99.90;;;;;;5095516;28;19919;-71
2022/05/26 10:04:39;;;;;;;;;;;17.80;99.90;;;;;;5110097;28;19943;-71
2022/05/26 10:07:11;;;;;;;;;;;17.90;99.90;;;;;;5094545;28;19929;-71
2022/05/26 10:09:40;;;;;;;;;;;17.90;99.90;;;;;;5083239;28;19924;-70
2022/05/26 10:12:06;;;;;;;;;;;17.70;99.90;;;;;;5092650;28;19912;-71
2022/05/26 10:14:38;;;;;;;;;;;17.70;99.90;;;;;;5095932;28;19928;-69
2022/05/26 10:17:19;;;;;;;;;;;17.80;99.90;;;;;;5073028;28;19935;-67
2022/05/26 10:20:03;;;;;;;;;;;17.90;99.90;;;;;;5051601;28;19940;-69
2022/05/26 10:22:47;;;;;;;;;;;17.80;99.90;;;;;;5045012;28;19913;-67
2022/05/26 10:25:38;;;;;;;;;;;17.80;99.90;;;;;;5057526;28;19913;-70
2022/05/26 10:28:16;;;;;;;;;;;17.70;99.90;;;;;;5034920;28;19966;-70
2022/05/26 10:30:52;;;;;;;;;;;17.60;99.90;;;;;;5051470;28;19924;-70
2022/05/26 10:33:21;;;;;;;;;;;17.60;99.90;;;;;;5048607;28;19917;-70
2022/05/26 10:36:10;;;;;;;;;;;17.60;99.90;;;;;;5056218;28;19968;-71
2022/05/26 10:39:10;;;;;;;;;;;17.60;99.90;;;;;;5046700;28;20778;-70
2022/05/26 10:41:43;;;;;;;;;;;17.60;99.90;;;;;;5028313;28;19913;-71
2022/05/26 10:44:31;;;;;;;;;;;17.60;99.90;;;;;;5055164;28;19912;-72
2022/05/26 10:47:19;;;;;;;;;;;17.60;99.90;;;;;;5059898;28;19920;-71
2022/05/26 10:49:54;;;;;;;;;;;17.60;99.90;;;;;;5054392;28;20353;-71
2022/05/26 10:52:26;;;;;;;;;;;17.50;99.90;;;;;;5055001;28;19958;-72
2022/05/26 10:55:00;;;;;;;;;;;17.60;99.90;;;;;;5049364;28;19913;-72
2022/05/26 10:57:49;;;;;;;;;;;17.70;99.90;;;;;;5056742;28;19917;-71
2022/05/26 11:00:15;;;;;;;;;;;17.50;99.90;;;;;;5054902;28;19971;-71
2022/05/26 11:02:40;;;;;;;;;;;17.50;99.90;;;;;;5055968;28;19913;-70
2022/05/26 11:05:09;;;;;;;;;;;17.60;99.90;;;;;;5056609;28;20362;-71
2022/05/26 11:07:37;;;;;;;;;;;17.70;99.90;;;;;;5051929;28;19951;-70
2022/05/26 11:10:22;;;;;;;;;;;17.60;99.90;;;;;;5056726;28;19920;-71
2022/05/26 11:12:51;;;;;;;;;;;17.50;99.90;;;;;;5056213;28;19913;-71
2022/05/26 11:18:16;;;;;;;;;;;17.40;99.90;;;;;;5086215;28;19926;-71
2022/05/26 11:20:44;;;;;;;;;;;17.50;99.90;;;;;;5093997;28;19924;-71
2022/05/26 11:23:10;;;;;;;;;;;17.50;99.90;;;;;;5097922;28;19912;-71
2022/05/26 11:25:45;;;;;;;;;;;17.60;99.90;;;;;;5090873;28;19912;-71
2022/05/26 11:28:30;;;;;;;;;;;17.80;99.90;;;;;;5064640;28;19913;-72
2022/05/26 11:36:45;;;;;;;;;;;18.10;99.90;;;;;;5097118;28;19927;-71
2022/05/26 11:39:17;;;;;;;;;;;18.10;99.90;;;;;;5088655;28;19931;-70
2022/05/26 11:41:55;;;;;;;;;;;18.20;99.90;;;;;;5090296;28;19921;-69
2022/05/26 11:44:40;;;;;;;;;;;18.20;99.90;;;;;;5074531;28;20263;-69
2022/05/26 11:47:28;;;;;;;;;;;18.20;99.90;;;;;;5091068;28;19919;-70
2022/05/26 11:49:56;;;;;;;;;;;18.20;99.90;;;;;;5090314;28;20419;-68
2022/05/26 11:52:25;;;;;;;;;;;18.30;99.90;;;;;;5071639;28;19912;-69
2022/05/26 11:54:54;;;;;;;;;;;18.50;99.90;;;;;;5082894;28;20368;-69
2022/05/26 11:57:35;;;;;;;;;;;18.50;99.90;;;;;;5093447;28;19916;-68
2022/05/26 12:00:16;;;;;;;;;;;18.70;99.90;;;;;;5091742;28;20022;-70
2022/05/26 12:02:42;;;;;;;;;;;18.70;99.90;;;;;;5099355;28;19967;-68
2022/05/26 12:05:26;;;;;;;;;;;18.70;99.90;;;;;;5089123;28;20245;-68
2022/05/26 12:07:52;;;;;;;;;;;18.60;99.90;;;;;;5070240;28;19918;-68
2022/05/26 12:10:19;;;;;;;;;;;18.60;99.90;;;;;;5071859;28;20006;-71
2022/05/26 12:12:45;;;;;;;;;;;18.70;99.90;;;;;;5085973;28;19919;-69
2022/05/26 12:15:16;;;;;;;;;;;18.60;99.90;;;;;;5074677;28;20366;-69
2022/05/26 12:17:45;;;;;;;;;;;18.40;99.90;;;;;;5073285;28;19935;-68
2022/05/26 12:20:10;;;;;;;;;;;18.50;99.90;;;;;;5092247;28;19945;-69
2022/05/26 12:22:37;;;;;;;;;;;18.30;99.90;;;;;;5096440;28;20020;-68
2022/05/26 12:25:15;;;;;;;;;;;18.10;99.90;;;;;;5101326;28;19922;-69
2022/05/26 12:27:54;;;;;;;;;;;18.20;99.90;;;;;;5100773;28;19920;-69
2022/05/26 12:30:46;;;;;;;;;;;18.20;99.90;;;;;;5090843;28;19920;-67
2022/05/26 12:33:21;;;;;;;;;;;18.20;99.90;;;;;;5055961;28;19951;-70
2022/05/26 12:35:46;;;;;;;;;;;18.40;99.90;;;;;;5098743;28;19912;-68
2022/05/26 12:38:32;;;;;;;;;;;18.60;99.90;;;;;;5071998;28;19923;-67
2022/05/26 12:41:03;;;;;;;;;;;18.50;99.90;;;;;;5083965;28;20372;-68
2022/05/26 12:43:37;;;;;;;;;;;18.40;99.90;;;;;;5083833;28;19924;-71
2022/05/26 12:46:23;;;;;;;;;;;18.20;99.90;;;;;;5093023;28;19916;-72
2022/05/26 12:48:51;;;;;;;;;;;18.20;99.90;;;;;;5093707;28;19913;-72
2022/05/26 12:51:17;;;;;;;;;;;18.30;99.90;;;;;;5089689;28;19931;-72
2022/05/26 12:53:54;;;;;;;;;;;18.50;99.90;;;;;;5091981;28;20357;-73
2022/05/26 12:56:24;;;;;;;;;;;18.50;99.90;;;;;;5090133;28;20011;-71
2022/05/26 12:58:53;;;;;;;;;;;18.80;99.90;;;;;;5096776;28;19917;-72
2022/05/26 13:01:20;;;;;;;;;;;18.90;99.90;;;;;;5096131;28;19947;-71
2022/05/26 13:03:54;;;;;;;;;;;18.70;99.90;;;;;;5095115;28;19979;-72
2022/05/26 13:06:22;;;;;;;;;;;18.70;99.90;;;;;;5075170;28;20537;-71
2022/05/26 13:08:48;;;;;;;;;;;18.50;99.90;;;;;;5095549;28;19919;-72
2022/05/26 13:11:15;;;;;;;;;;;18.30;99.90;;;;;;5079843;28;19992;-71
2022/05/26 13:13:40;;;;;;;;;;;18.30;99.90;;;;;;5095820;28;19923;-72
2022/05/26 13:16:25;;;;;;;;;;;18.20;99.90;;;;;;5092922;28;19927;-73
2022/05/26 13:18:51;;;;;;;;;;;18.30;99.90;;;;;;5075082;28;19978;-72
2022/05/26 13:21:23;;;;;;;;;;;18.50;99.90;;;;;;5067799;28;19996;-72
2022/05/26 13:23:50;;;;;;;;;;;18.60;99.90;;;;;;5101998;28;19939;-71
2022/05/26 13:26:17;;;;;;;;;;;18.70;99.90;;;;;;5094692;28;19983;-73
2022/05/26 13:28:45;;;;;;;;;;;18.70;99.90;;;;;;5098854;28;19923;-71
2022/05/26 13:33:56;;;;;;;;;;;18.90;99.90;;;;;;5100051;28;19927;-72
2022/05/26 13:36:24;;;;;;;;;;;19.00;99.90;;;;;;5095188;28;19916;-72
2022/05/26 13:38:50;;;;;;;;;;;19.00;99.90;;;;;;5098320;28;19979;-72
2022/05/26 13:41:18;;;;;;;;;;;19.10;99.90;;;;;;5094062;28;19920;-72
2022/05/26 13:43:44;;;;;;;;;;;18.90;99.90;;;;;;5095937;28;19912;-71
2022/05/26 13:46:13;;;;;;;;;;;18.80;99.90;;;;;;5094188;28;20369;-72
2022/05/26 13:48:42;;;;;;;;;;;18.70;99.90;;;;;;5094696;28;19920;-72
2022/05/26 13:51:22;;;;;;;;;;;18.70;99.90;;;;;;5091467;28;20374;-71
2022/05/26 13:54:11;;;;;;;;;;;18.80;99.90;;;;;;5089950;28;19999;-72
2022/05/26 13:56:37;;;;;;;;;;;18.70;99.90;;;;;;5076385;28;19917;-72
2022/05/26 13:59:09;;;;;;;;;;;18.40;99.90;;;;;;5088079;28;19917;-72
2022/05/26 14:01:40;;;;;;;;;;;18.50;99.90;;;;;;5087033;28;20026;-72
2022/05/26 14:04:06;;;;;;;;;;;18.30;99.90;;;;;;5092682;28;19989;-72
2022/05/26 14:06:32;;;;;;;;;;;18.20;99.90;;;;;;5091753;28;19947;-73
2022/05/26 14:08:59;;;;;;;;;;;18.20;99.90;;;;;;5095967;28;19912;-72
2022/05/26 14:11:25;;;;;;;;;;;18.00;99.90;;;;;;5101205;28;19950;-72
2022/05/26 14:13:52;;;;;;;;;;;17.80;99.90;;;;;;5099824;28;19912;-71
2022/05/26 14:16:20;;;;;;;;;;;17.70;99.90;;;;;;5100473;28;19912;-72
2022/05/26 14:18:52;;;;;;;;;;;17.80;99.90;;;;;;5061956;28;20016;-71
2022/05/26 14:21:20;;;;;;;;;;;17.80;99.90;;;;;;5092196;28;19993;-72
2022/05/26 14:23:48;;;;;;;;;;;18.00;99.90;;;;;;5093221;28;19985;-72
2022/05/26 14:26:33;;;;;;;;;;;17.90;99.90;;;;;;5090804;28;20342;-70
2022/05/26 14:29:00;;;;;;;;;;;17.90;99.90;;;;;;5089603;28;19912;-67
2022/05/26 14:31:27;;;;;;;;;;;17.80;99.90;;;;;;5094827;28;19959;-68
2022/05/26 14:33:58;;;;;;;;;;;17.80;99.90;;;;;;5074223;28;19953;-69
2022/05/26 14:36:24;;;;;;;;;;;17.80;99.90;;;;;;5070875;28;20254;-70
2022/05/26 14:38:49;;;;;;;;;;;17.80;99.90;;;;;;5085584;28;20392;-70
2022/05/26 14:41:15;;;;;;;;;;;18.00;99.90;;;;;;5090927;28;19912;-69
2022/05/26 14:43:40;;;;;;;;;;;18.10;99.90;;;;;;5091552;28;19968;-68
2022/05/26 14:46:06;;;;;;;;;;;18.20;99.90;;;;;;5090642;28;19916;-69
2022/05/26 14:48:31;;;;;;;;;;;18.00;99.90;;;;;;5089851;28;21509;-68
2022/05/26 14:50:58;;;;;;;;;;;18.00;99.90;;;;;;5091536;28;19912;-70
2022/05/26 14:56:08;;;;;;;;;;;18.00;99.90;;;;;;5091419;28;19920;-69
2022/05/26 14:58:34;;;;;;;;;;;18.00;99.90;;;;;;5101418;28;19916;-68
2022/05/26 15:01:00;;;;;;;;;;;18.10;99.90;;;;;;5082276;28;20358;-70
2022/05/26 15:03:26;;;;;;;;;;;18.10;99.90;;;;;;5091412;28;19912;-68
2022/05/26 15:05:53;;;;;;;;;;;17.80;99.90;;;;;;5070878;28;19970;-71
2022/05/26 15:08:41;;;;;;;;;;;17.60;99.90;;;;;;5076882;28;19923;-70
2022/05/26 15:11:07;;;;;;;;;;;17.40;99.90;;;;;;5093486;28;20003;-70